createdAt,value
2023-04-07T00:00:58.973Z,16.23
2023-04-07T00:02:21.654Z,17.13
2023-04-07T00:03:44.236Z,17.10
2023-04-07T00:05:08.694Z,16.50
2023-04-07T00:06:36.676Z,17.92
2023-04-07T00:07:57.714Z,17.10
2023-04-07T00:09:23.299Z,16.90
2023-04-07T00:10:52.187Z,16.10
2023-04-07T00:12:16.410Z,15.85
2023-04-07T00:13:40.689Z,17.20
2023-04-07T00:15:02.247Z,16.75
2023-04-07T00:16:28.974Z,16.05
2023-04-07T00:18:07.852Z,17.35
2023-04-07T00:19:33.835Z,14.77
2023-04-07T00:20:57.295Z,16.77
2023-04-07T00:22:18.737Z,15.90
2023-04-07T00:23:44.029Z,16.47
2023-04-07T00:25:06.876Z,15.43
2023-04-07T00:26:31.595Z,14.95
2023-04-07T00:27:56.145Z,15.35
2023-04-07T00:29:18.853Z,16.15
2023-04-07T00:30:44.517Z,15.95
2023-04-07T00:32:09.631Z,15.70
2023-04-07T00:33:40.810Z,16.75
2023-04-07T00:35:04.833Z,15.13
2023-04-07T00:36:28.847Z,15.75
2023-04-07T00:37:49.962Z,17.42
2023-04-07T00:39:15.121Z,14.93
2023-04-07T00:40:37.656Z,16.27
2023-04-07T00:43:20.786Z,15.35
2023-04-07T00:44:45.462Z,16.13
2023-04-07T00:46:06.865Z,17.90
2023-04-07T00:48:56.179Z,16.48
2023-04-07T00:50:19.579Z,16.55
2023-04-07T00:51:42.991Z,18.00
2023-04-07T00:53:05.750Z,17.92
2023-04-07T00:54:29.233Z,16.67
2023-04-07T00:55:51.546Z,17.42
2023-04-07T00:57:14.095Z,16.95
2023-04-07T00:58:36.366Z,17.13
2023-04-07T00:59:59.493Z,16.27
2023-04-07T01:01:27.829Z,16.67
2023-04-07T01:02:58.019Z,17.63
2023-04-07T01:04:29.307Z,16.60
2023-04-07T01:05:57.489Z,17.92
2023-04-07T01:07:24.157Z,16.52
2023-04-07T01:09:04.177Z,17.58
2023-04-07T01:10:37.028Z,16.20
2023-04-07T01:12:16.262Z,16.55
2023-04-07T01:13:43.834Z,16.85
2023-04-07T01:15:18.120Z,16.52
2023-04-07T01:16:47.291Z,17.40
2023-04-07T01:18:34.834Z,17.27
2023-04-07T01:20:03.934Z,16.17
2023-04-07T01:21:30.131Z,16.67
2023-04-07T01:22:56.350Z,16.92
2023-04-07T01:24:39.711Z,17.52
2023-04-07T01:26:25.620Z,16.10
2023-04-07T01:28:01.152Z,16.15
2023-04-07T01:29:50.869Z,17.35
2023-04-07T01:31:18.906Z,16.33
2023-04-07T01:32:43.165Z,15.73
2023-04-07T01:34:05.253Z,17.05
2023-04-07T01:35:40.735Z,16.95
2023-04-07T01:37:10.184Z,16.15
2023-04-07T01:38:32.323Z,17.30
2023-04-07T01:39:54.958Z,17.42
2023-04-07T01:41:17.494Z,17.15
2023-04-07T01:42:41.019Z,18.00
2023-04-07T01:44:08.126Z,17.55
2023-04-07T01:45:34.751Z,16.63
2023-04-07T01:46:58.133Z,17.35
2023-04-07T01:48:23.168Z,17.00
2023-04-07T01:49:48.023Z,15.75
2023-04-07T01:51:12.196Z,18.88
2023-04-07T01:52:36.105Z,16.77
2023-04-07T01:54:05.250Z,17.67
2023-04-07T01:55:28.056Z,16.58
2023-04-07T01:56:57.968Z,17.17
2023-04-07T01:58:20.018Z,17.73
2023-04-07T01:59:46.248Z,17.55
2023-04-07T02:01:10.108Z,18.52
2023-04-07T02:02:35.565Z,17.63
2023-04-07T02:04:07.961Z,17.80
2023-04-07T02:05:32.306Z,17.52
2023-04-07T02:07:01.018Z,18.20
2023-04-07T02:08:36.939Z,18.15
2023-04-07T02:10:02.140Z,18.52
2023-04-07T02:11:24.951Z,17.98
2023-04-07T02:12:54.619Z,17.88
2023-04-07T02:14:21.365Z,18.70
2023-04-07T02:16:28.239Z,16.67
2023-04-07T02:18:01.153Z,18.38
2023-04-07T02:19:22.885Z,18.20
2023-04-07T02:20:46.463Z,18.65
2023-04-07T02:22:11.857Z,19.85
2023-04-07T02:24:04.618Z,18.45
2023-04-07T02:25:30.239Z,19.08
2023-04-07T02:26:52.459Z,19.40
2023-04-07T02:28:15.989Z,18.92
2023-04-07T02:29:41.153Z,18.92
2023-04-07T02:31:02.310Z,21.05
2023-04-07T02:32:48.259Z,20.10
2023-04-07T02:34:36.213Z,19.45
2023-04-07T02:36:01.284Z,19.33
2023-04-07T02:37:25.313Z,19.48
2023-04-07T02:38:47.636Z,19.55
2023-04-07T02:40:18.414Z,19.48
2023-04-07T02:41:40.851Z,18.02
2023-04-07T02:44:23.746Z,18.52
2023-04-07T02:45:47.368Z,18.83
2023-04-07T02:47:12.688Z,18.27
2023-04-07T02:48:35.060Z,19.73
2023-04-07T02:49:58.169Z,17.75
2023-04-07T02:51:19.703Z,18.58
2023-04-07T02:52:44.392Z,19.25
2023-04-07T02:54:09.598Z,18.98
2023-04-07T02:55:30.761Z,18.02
2023-04-07T02:56:52.946Z,19.60
2023-04-07T02:58:20.786Z,18.65
2023-04-07T02:59:41.931Z,18.35
2023-04-07T03:01:08.352Z,18.98
2023-04-07T03:02:30.930Z,18.23
2023-04-07T03:05:19.284Z,17.45
2023-04-07T03:06:41.954Z,17.95
2023-04-07T03:08:12.272Z,18.77
2023-04-07T03:09:34.270Z,18.15
2023-04-07T03:10:57.069Z,17.88
2023-04-07T03:12:24.150Z,17.17
2023-04-07T03:13:56.862Z,17.92
2023-04-07T03:15:20.082Z,18.58
2023-04-07T03:16:43.563Z,18.02
2023-04-07T03:18:08.230Z,18.83
2023-04-07T03:19:55.969Z,18.02
2023-04-07T03:21:19.670Z,17.83
2023-04-07T03:22:42.275Z,20.20
2023-04-07T03:24:21.846Z,19.25
2023-04-07T03:25:44.130Z,20.45
2023-04-07T03:27:12.782Z,20.80
2023-04-07T03:28:39.969Z,21.88
2023-04-07T03:30:09.066Z,21.15
2023-04-07T03:31:31.609Z,21.35
2023-04-07T03:32:54.361Z,22.95
2023-04-07T03:34:27.011Z,22.10
2023-04-07T03:35:56.637Z,21.83
2023-04-07T03:37:20.648Z,23.08
2023-04-07T03:38:46.570Z,23.48
2023-04-07T03:40:10.484Z,23.23
2023-04-07T03:41:33.775Z,21.80
2023-04-07T03:42:57.525Z,23.98
2023-04-07T03:44:22.274Z,24.30
2023-04-07T03:45:48.193Z,24.40
2023-04-07T03:47:12.219Z,23.02
2023-04-07T03:48:34.507Z,23.75
2023-04-07T03:49:59.969Z,22.50
2023-04-07T03:51:24.595Z,23.88
2023-04-07T03:52:52.031Z,21.92
2023-04-07T03:54:18.559Z,22.73
2023-04-07T03:55:40.873Z,23.42
2023-04-07T03:57:10.917Z,23.65
2023-04-07T03:58:37.529Z,25.10
2023-04-07T03:59:59.976Z,22.73
2023-04-07T04:01:29.456Z,21.33
2023-04-07T04:02:53.890Z,21.65
2023-04-07T04:04:15.656Z,22.02
2023-04-07T04:05:38.517Z,22.95
2023-04-07T04:07:03.541Z,22.77
2023-04-07T04:09:56.404Z,22.35
2023-04-07T04:11:17.974Z,21.33
2023-04-07T04:12:52.792Z,23.38
2023-04-07T04:14:33.827Z,22.23
2023-04-07T04:15:58.369Z,23.95
2023-04-07T04:17:19.335Z,23.13
2023-04-07T04:18:42.686Z,22.60
2023-04-07T04:20:07.752Z,21.80
2023-04-07T04:21:37.928Z,21.52
2023-04-07T04:23:07.136Z,21.98
2023-04-07T04:24:28.851Z,22.90
2023-04-07T04:26:00.290Z,22.58
2023-04-07T04:27:23.495Z,21.92
2023-04-07T04:28:54.584Z,22.73
2023-04-07T04:30:29.099Z,22.40
2023-04-07T04:31:55.129Z,21.13
2023-04-07T04:33:17.302Z,22.17
2023-04-07T04:34:50.804Z,22.17
2023-04-07T04:36:12.105Z,20.20
2023-04-07T04:37:35.995Z,21.48
2023-04-07T04:39:04.100Z,20.67
2023-04-07T04:40:27.873Z,20.92
2023-04-07T04:41:49.557Z,21.73
2023-04-07T04:43:13.301Z,22.25
2023-04-07T04:44:39.296Z,21.20
2023-04-07T04:46:10.732Z,21.75
2023-04-07T04:47:36.269Z,16.55
2023-04-07T04:50:26.421Z,17.17
2023-04-07T04:53:14.078Z,15.65
2023-04-07T04:54:56.720Z,16.30
2023-04-07T04:56:19.388Z,16.48
2023-04-07T04:57:44.045Z,17.23
2023-04-07T04:59:09.517Z,16.80
2023-04-07T05:00:58.329Z,16.55
2023-04-07T05:02:30.129Z,15.48
2023-04-07T05:03:53.207Z,15.27
2023-04-07T05:05:18.746Z,15.48
2023-04-07T05:06:43.982Z,15.57
2023-04-07T05:08:12.518Z,16.77
2023-04-07T05:09:35.008Z,15.30
2023-04-07T05:15:03.446Z,16.58
2023-04-07T05:16:28.794Z,15.50
2023-04-07T05:17:53.440Z,16.23
2023-04-07T05:19:31.033Z,14.70
2023-04-07T05:21:08.503Z,15.23
2023-04-07T05:22:31.068Z,15.88
2023-04-07T05:23:55.056Z,15.80
2023-04-07T05:29:43.403Z,16.08
2023-04-07T05:33:05.852Z,15.23
2023-04-07T05:34:54.354Z,15.48
2023-04-07T05:36:18.139Z,15.82
2023-04-07T05:37:51.342Z,16.58
2023-04-07T05:39:25.923Z,16.33
2023-04-07T05:40:55.813Z,16.98
2023-04-07T05:42:32.320Z,15.73
2023-04-07T05:44:20.606Z,16.38
2023-04-07T05:45:48.968Z,17.40
2023-04-07T05:47:13.800Z,16.45
2023-04-07T05:48:38.382Z,16.42
2023-04-07T05:50:01.077Z,20.37
2023-04-07T05:51:23.439Z,18.98
2023-04-07T05:52:49.310Z,16.58
2023-04-07T05:54:20.230Z,17.17
2023-04-07T05:55:44.526Z,16.92
2023-04-07T05:57:17.488Z,15.90
2023-04-07T05:58:40.740Z,15.77
2023-04-07T06:00:07.760Z,15.77
2023-04-07T06:01:40.268Z,16.15
2023-04-07T06:03:33.531Z,16.02
2023-04-07T06:05:05.600Z,15.55
2023-04-07T06:06:32.091Z,16.15
2023-04-07T06:07:59.573Z,15.43
2023-04-07T06:09:22.938Z,16.20
2023-04-07T06:10:46.842Z,15.95
2023-04-07T06:12:12.478Z,16.70
2023-04-07T06:13:37.742Z,16.90
2023-04-07T06:22:07.388Z,15.20
2023-04-07T06:27:40.709Z,17.08
2023-04-07T06:32:04.171Z,17.60
2023-04-07T06:36:36.923Z,15.52
2023-04-07T06:38:05.044Z,16.52
2023-04-07T06:39:45.935Z,17.45
2023-04-07T06:41:17.154Z,16.75
2023-04-07T06:42:57.841Z,16.33
2023-04-07T06:44:49.878Z,15.50
2023-04-07T06:46:47.171Z,16.10
2023-04-07T06:49:22.243Z,16.13
2023-04-07T06:51:21.521Z,14.73
2023-04-07T06:52:50.635Z,14.98
2023-04-07T06:54:54.154Z,15.80
2023-04-07T07:00:23.520Z,15.75
2023-04-07T07:02:58.313Z,17.67
2023-04-07T07:04:37.756Z,15.55
2023-04-07T07:13:14.012Z,15.38
2023-04-07T07:14:53.392Z,16.48
2023-04-07T07:16:20.407Z,16.02
2023-04-07T07:17:53.597Z,16.05
2023-04-07T07:19:27.198Z,15.15
2023-04-07T07:25:14.481Z,14.82
2023-04-07T07:26:49.040Z,15.02
2023-04-07T07:28:11.534Z,15.35
2023-04-07T07:30:57.135Z,15.90
2023-04-07T07:39:56.548Z,14.45
2023-04-07T07:41:24.305Z,15.25
2023-04-07T08:04:10.480Z,13.50
2023-04-07T08:06:58.994Z,13.95
2023-04-07T08:08:23.678Z,13.27
2023-04-07T08:12:22.664Z,13.15
2023-04-07T08:15:54.985Z,13.18
2023-04-07T08:17:21.838Z,14.00
2023-04-07T08:19:08.095Z,13.48
2023-04-07T08:27:10.683Z,12.52
2023-04-07T08:29:41.778Z,12.70
2023-04-07T08:53:06.388Z,12.45
2023-04-07T09:00:10.402Z,13.07
2023-04-07T09:07:44.463Z,13.75
2023-04-07T09:09:16.946Z,12.52
2023-04-07T09:10:53.477Z,13.05
2023-04-07T09:12:18.020Z,12.38
2023-04-07T09:13:41.494Z,12.05
2023-04-07T09:15:08.681Z,13.32
2023-04-07T09:16:34.705Z,12.93
2023-04-07T09:18:08.737Z,12.50
2023-04-07T09:20:28.160Z,13.70
2023-04-07T09:21:58.295Z,11.13
2023-04-07T09:23:44.511Z,11.93
2023-04-07T09:25:21.147Z,10.98
2023-04-07T09:26:46.649Z,11.32
2023-04-07T09:28:11.660Z,11.18
2023-04-07T09:30:02.062Z,12.00
2023-04-07T09:31:47.208Z,11.13
2023-04-07T09:33:11.301Z,11.85
2023-04-07T09:34:36.137Z,11.18
2023-04-07T09:35:59.733Z,11.95
2023-04-07T09:37:25.062Z,11.40
2023-04-07T09:39:13.247Z,13.40
2023-04-07T09:40:38.730Z,12.60
2023-04-07T09:42:00.976Z,11.80
2023-04-07T09:43:23.288Z,12.10
2023-04-07T09:44:46.386Z,12.38
2023-04-07T09:46:16.868Z,12.75
2023-04-07T09:47:57.702Z,12.18
2023-04-07T09:49:22.071Z,12.05
2023-04-07T09:51:13.120Z,11.93
2023-04-07T09:52:53.273Z,12.50
2023-04-07T09:54:34.885Z,12.95
2023-04-07T09:56:02.585Z,12.55
2023-04-07T09:57:30.380Z,12.82
2023-04-07T09:58:55.712Z,13.30
2023-04-07T10:00:40.999Z,13.63
2023-04-07T10:02:13.639Z,12.57
2023-04-07T10:04:07.284Z,12.55
2023-04-07T10:06:28.669Z,13.70
2023-04-07T10:07:57.303Z,12.13
2023-04-07T10:09:25.290Z,12.97
2023-04-07T10:10:48.537Z,12.20
2023-04-07T10:12:17.099Z,11.30
2023-04-07T10:17:00.163Z,11.20
2023-04-07T10:21:45.058Z,12.43
2023-04-07T10:23:44.009Z,11.60
2023-04-07T10:25:25.800Z,11.82
2023-04-07T10:27:51.180Z,11.65
2023-04-07T10:29:36.612Z,12.52
2023-04-07T10:31:30.940Z,11.18
2023-04-07T10:32:59.417Z,11.93
2023-04-07T10:34:59.636Z,12.65
2023-04-07T10:45:29.548Z,11.93
2023-04-07T10:51:23.235Z,12.43
2023-04-07T10:52:48.627Z,12.73
2023-04-07T10:54:23.048Z,12.40
2023-04-07T10:56:53.260Z,12.85
2023-04-07T10:59:04.409Z,12.18
2023-04-07T11:01:33.290Z,12.10
2023-04-07T11:02:58.005Z,12.02
2023-04-07T11:04:21.173Z,12.23
2023-04-07T11:08:42.722Z,13.05
2023-04-07T11:12:25.156Z,11.45
2023-04-07T11:14:00.782Z,12.07
2023-04-07T11:15:23.769Z,11.65
2023-04-07T11:20:00.168Z,12.27
2023-04-07T11:22:41.693Z,12.80
2023-04-07T11:27:02.103Z,11.45
2023-04-07T11:28:42.305Z,10.50
2023-04-07T11:30:17.061Z,12.23
2023-04-07T11:38:05.483Z,11.75
2023-04-07T11:39:55.852Z,10.88
2023-04-07T11:41:37.627Z,11.40
2023-04-07T11:43:17.392Z,13.03
2023-04-07T11:45:25.505Z,13.02
2023-04-07T11:52:47.239Z,12.75
2023-04-07T11:54:13.945Z,12.98
2023-04-07T11:55:41.111Z,13.40
2023-04-07T11:57:07.126Z,14.35
2023-04-07T11:58:33.035Z,12.95
2023-04-07T12:00:17.286Z,12.30
2023-04-07T12:01:45.309Z,14.65
2023-04-07T12:03:16.360Z,15.43
2023-04-07T12:28:01.617Z,13.35
2023-04-07T13:00:57.029Z,11.55
2023-04-07T13:12:17.268Z,11.68
2023-04-07T13:47:47.038Z,11.75
2023-04-07T13:49:16.488Z,12.70
2023-04-07T13:50:42.941Z,13.45
2023-04-07T13:52:12.292Z,12.73
2023-04-07T13:53:43.982Z,13.40
2023-04-07T13:55:25.043Z,14.55
2023-04-07T13:56:49.091Z,12.85
2023-04-07T13:59:02.305Z,11.90
2023-04-07T14:00:27.865Z,13.25
2023-04-07T14:01:56.141Z,12.68
2023-04-07T14:03:21.174Z,12.90
2023-04-07T14:04:49.537Z,13.32
2023-04-07T14:06:12.025Z,12.25
2023-04-07T14:07:34.691Z,12.00
2023-04-07T14:09:29.191Z,11.77
2023-04-07T14:10:51.642Z,12.55
2023-04-07T14:12:14.379Z,12.32
2023-04-07T14:14:00.652Z,11.85
2023-04-07T14:15:28.641Z,13.02
2023-04-07T14:17:29.965Z,12.20
2023-04-07T14:23:04.248Z,13.10
2023-04-07T14:24:31.208Z,14.52
2023-04-07T14:25:58.967Z,13.40
2023-04-07T14:27:22.563Z,13.15
2023-04-07T14:28:55.165Z,13.40
2023-04-07T14:30:37.669Z,14.10
2023-04-07T14:33:39.295Z,13.82
2023-04-07T14:34:19.676Z,13.50
2023-04-07T14:39:20.199Z,14.48
2023-04-07T14:44:01.088Z,14.63
2023-04-07T14:46:15.426Z,15.35
2023-04-07T14:48:28.743Z,17.50
2023-04-07T14:51:09.602Z,17.38
2023-04-07T14:54:53.327Z,16.15
2023-04-07T14:56:58.670Z,16.52
2023-04-07T14:58:41.039Z,16.98
2023-04-07T15:17:55.509Z,16.55
2023-04-07T15:34:51.681Z,14.85
2023-04-07T15:39:49.041Z,16.77
2023-04-07T15:41:27.680Z,16.27
2023-04-07T15:45:15.695Z,16.90
2023-04-07T15:46:56.837Z,18.65
2023-04-07T15:52:40.213Z,17.25
2023-04-07T15:59:35.730Z,17.42
2023-04-07T16:01:05.663Z,16.20
2023-04-07T16:02:34.298Z,16.88
2023-04-07T16:03:59.094Z,16.63
2023-04-07T16:11:07.519Z,17.33
2023-04-07T16:13:47.136Z,16.58
2023-04-07T16:18:17.500Z,17.85
2023-04-07T16:20:19.876Z,17.25
2023-04-07T16:22:59.735Z,16.45
2023-04-07T16:24:25.845Z,16.58
2023-04-07T16:26:08.610Z,17.20
2023-04-07T16:27:36.109Z,18.55
2023-04-07T16:28:58.834Z,19.95
2023-04-07T16:30:26.076Z,17.88
2023-04-07T16:31:55.429Z,15.95
2023-04-07T16:33:21.033Z,17.33
2023-04-07T16:38:58.083Z,18.13
2023-04-07T16:40:26.610Z,18.73
2023-04-07T16:41:49.399Z,18.55
2023-04-07T16:43:20.271Z,19.20
2023-04-07T16:44:43.488Z,20.30
2023-04-07T16:46:36.784Z,17.80
2023-04-07T16:50:05.595Z,20.05
2023-04-07T16:51:32.457Z,18.17
2023-04-07T16:52:57.809Z,18.80
2023-04-07T16:55:39.098Z,19.25
2023-04-07T16:57:10.120Z,18.52
2023-04-07T16:58:51.310Z,20.27
2023-04-07T17:00:25.577Z,19.13
2023-04-07T17:02:08.445Z,20.55
2023-04-07T17:04:04.397Z,19.15
2023-04-07T17:05:48.793Z,19.73
2023-04-07T17:10:38.958Z,20.30
2023-04-07T17:12:09.000Z,18.55
2023-04-07T17:20:11.682Z,18.63
2023-04-07T17:22:01.898Z,17.90
2023-04-07T17:23:58.135Z,18.50
2023-04-07T17:25:28.015Z,17.58
2023-04-07T17:47:41.517Z,19.52
2023-04-07T18:02:00.188Z,16.48
2023-04-07T18:19:38.582Z,21.33
2023-04-07T18:21:03.707Z,20.67
2023-04-07T18:24:18.262Z,19.70
2023-04-07T18:25:40.420Z,19.85
2023-04-07T18:38:09.648Z,21.80
2023-04-07T18:39:45.905Z,21.60
2023-04-07T18:41:14.436Z,19.95
2023-04-07T18:50:10.895Z,19.67
2023-04-07T18:51:36.074Z,36.85
2023-04-07T18:53:02.048Z,22.48
2023-04-07T18:54:29.285Z,21.20
2023-04-07T18:55:51.955Z,21.25
2023-04-07T18:57:14.841Z,20.85
2023-04-07T18:58:44.030Z,22.98
2023-04-07T19:00:42.764Z,21.60
2023-04-07T19:05:48.113Z,20.30
2023-04-07T19:07:13.312Z,19.75
2023-04-07T19:09:51.606Z,21.35
2023-04-07T19:11:43.661Z,21.00
2023-04-07T19:13:23.931Z,21.80
2023-04-07T19:14:50.184Z,21.10
2023-04-07T19:16:19.038Z,21.10
2023-04-07T19:19:22.511Z,22.05
2023-04-07T19:20:52.942Z,20.65
2023-04-07T19:22:35.159Z,21.73
2023-04-07T19:23:59.761Z,24.80
2023-04-07T19:25:35.376Z,22.65
2023-04-07T19:30:17.579Z,19.75
2023-04-07T20:16:27.392Z,26.48
2023-04-07T22:28:27.468Z,18.77
2023-04-07T22:30:10.283Z,19.13
2023-04-07T22:31:38.512Z,18.55
2023-04-07T22:35:36.398Z,16.00
2023-04-07T22:37:14.175Z,18.23
2023-04-07T22:38:51.636Z,17.27
2023-04-07T22:40:21.877Z,17.98
2023-04-07T22:42:06.760Z,18.17
2023-04-07T22:44:22.090Z,18.10
2023-04-07T22:56:41.145Z,15.60
2023-04-07T23:07:42.718Z,16.40
2023-04-07T23:17:55.567Z,16.05
2023-04-07T23:26:16.537Z,18.02
2023-04-07T23:33:39.096Z,19.25
2023-04-07T23:35:36.796Z,19.15
2023-04-07T23:40:27.565Z,17.67
2023-04-07T23:42:09.456Z,18.58
2023-04-07T23:44:13.666Z,17.05
2023-04-07T23:45:56.572Z,18.88
2023-04-07T23:48:09.347Z,19.23
2023-04-07T23:50:07.815Z,18.40
2023-04-07T23:54:56.738Z,18.52
2023-04-07T23:56:21.860Z,19.63
2023-04-07T23:57:55.744Z,20.23
2023-04-07T23:59:20.993Z,20.38
